sensor_id;sensor_type;location;lat;lon;timestamp;pressure;altitude;pressure_sealevel;temperature;humidity
67931;BME280;63902;52.000;5.954;2022-10-17T00:00:41;101285.47;;;11.53;100.00
67931;BME280;63902;52.000;5.954;2022-10-17T00:01:42;101283.66;;;11.55;100.00
67931;BME280;63902;52.000;5.954;2022-10-17T00:02:42;101273.88;;;11.56;100.00
67931;BME280;63902;52.000;5.954;2022-10-17T00:03:42;101287.97;;;11.58;100.00
67931;BME280;63902;52.000;5.954;2022-10-17T00:04:43;101292.34;;;11.59;100.00
67931;BME280;63902;52.000;5.954;2022-10-17T00:05:45;101296.00;;;11.56;100.00
67931;BME280;63902;52.000;5.954;2022-10-17T00:06:46;101289.94;;;11.53;100.00
67931;BME280;63902;52.000;5.954;2022-10-17T00:07:46;101293.53;;;11.52;100.00
67931;BME280;63902;52.000;5.954;2022-10-17T00:08:47;101290.06;;;11.50;100.00
67931;BME280;63902;52.000;5.954;2022-10-17T00:09:47;101285.72;;;11.47;100.00
67931;BME280;63902;52.000;5.954;2022-10-17T00:10:54;101296.41;;;11.46;100.00
67931;BME280;63902;52.000;5.954;2022-10-17T00:11:56;101294.66;;;11.45;100.00
67931;BME280;63902;52.000;5.954;2022-10-17T00:12:57;101297.31;;;11.45;100.00
67931;BME280;63902;52.000;5.954;2022-10-17T00:13:57;101294.63;;;11.46;100.00
67931;BME280;63902;52.000;5.954;2022-10-17T00:14:58;101291.84;;;11.49;100.00
67931;BME280;63902;52.000;5.954;2022-10-17T00:15:58;101294.31;;;11.54;100.00
67931;BME280;63902;52.000;5.954;2022-10-17T00:16:59;101299.53;;;11.57;100.00
67931;BME280;63902;52.000;5.954;2022-10-17T00:18:00;101293.22;;;11.59;100.00
67931;BME280;63902;52.000;5.954;2022-10-17T00:19:00;101296.75;;;11.60;100.00
67931;BME280;63902;52.000;5.954;2022-10-17T00:20:01;101296.69;;;11.61;100.00
67931;BME280;63902;52.000;5.954;2022-10-17T00:21:02;101289.69;;;11.59;100.00
67931;BME280;63902;52.000;5.954;2022-10-17T00:22:02;101293.28;;;11.58;100.00
67931;BME280;63902;52.000;5.954;2022-10-17T00:23:03;101294.22;;;11.57;100.00
67931;BME280;63902;52.000;5.954;2022-10-17T00:24:04;101287.16;;;11.56;100.00
67931;BME280;63902;52.000;5.954;2022-10-17T00:25:05;101288.91;;;11.57;100.00
67931;BME280;63902;52.000;5.954;2022-10-17T00:26:06;101284.50;;;11.56;100.00
67931;BME280;63902;52.000;5.954;2022-10-17T00:27:08;101288.97;;;11.55;100.00
67931;BME280;63902;52.000;5.954;2022-10-17T00:28:08;101277.72;;;11.49;100.00
67931;BME280;63902;52.000;5.954;2022-10-17T00:29:09;101260.88;;;11.48;100.00
67931;BME280;63902;52.000;5.954;2022-10-17T00:30:11;101272.41;;;11.49;100.00
67931;BME280;63902;52.000;5.954;2022-10-17T00:31:12;101272.44;;;11.47;100.00
67931;BME280;63902;52.000;5.954;2022-10-17T00:32:12;101268.91;;;11.47;100.00
67931;BME280;63902;52.000;5.954;2022-10-17T00:33:12;101276.88;;;11.47;100.00
67931;BME280;63902;52.000;5.954;2022-10-17T00:34:13;101273.38;;;11.46;100.00
67931;BME280;63902;52.000;5.954;2022-10-17T00:35:13;101274.34;;;11.43;100.00
67931;BME280;63902;52.000;5.954;2022-10-17T00:36:15;101273.53;;;11.41;100.00
67931;BME280;63902;52.000;5.954;2022-10-17T00:37:16;101270.94;;;11.40;100.00
67931;BME280;63902;52.000;5.954;2022-10-17T00:38:16;101273.66;;;11.38;100.00
67931;BME280;63902;52.000;5.954;2022-10-17T00:39:17;101269.28;;;11.37;100.00
67931;BME280;63902;52.000;5.954;2022-10-17T00:40:17;101277.13;;;11.40;100.00
67931;BME280;63902;52.000;5.954;2022-10-17T00:41:20;101274.47;;;11.40;100.00
67931;BME280;63902;52.000;5.954;2022-10-17T00:42:22;101275.44;;;11.38;100.00
67931;BME280;63902;52.000;5.954;2022-10-17T00:43:22;101280.75;;;11.38;100.00
67931;BME280;63902;52.000;5.954;2022-10-17T00:46:00;101281.63;;;11.38;100.00
67931;BME280;63902;52.000;5.954;2022-10-17T00:47:03;101279.81;;;11.39;100.00
67931;BME280;63902;52.000;5.954;2022-10-17T00:48:08;101285.22;;;11.37;100.00
67931;BME280;63902;52.000;5.954;2022-10-17T00:49:10;101281.63;;;11.38;100.00
67931;BME280;63902;52.000;5.954;2022-10-17T00:50:12;101286.00;;;11.39;100.00
67931;BME280;63902;52.000;5.954;2022-10-17T00:51:13;101290.41;;;11.40;100.00
67931;BME280;63902;52.000;5.954;2022-10-17T00:52:17;101281.28;;;11.48;100.00
67931;BME280;63902;52.000;5.954;2022-10-17T00:53:20;101283.06;;;11.47;100.00
67931;BME280;63902;52.000;5.954;2022-10-17T00:54:23;101283.94;;;11.48;100.00
67931;BME280;63902;52.000;5.954;2022-10-17T00:55:27;101278.63;;;11.48;100.00
67931;BME280;63902;52.000;5.954;2022-10-17T00:56:30;101282.03;;;11.51;100.00
67931;BME280;63902;52.000;5.954;2022-10-17T00:57:32;101283.69;;;11.54;100.00
67931;BME280;63902;52.000;5.954;2022-10-17T00:58:33;101286.34;;;11.54;100.00
67931;BME280;63902;52.000;5.954;2022-10-17T00:59:35;101274.75;;;11.56;100.00
67931;BME280;63902;52.000;5.954;2022-10-17T01:00:37;101265.09;;;11.54;100.00
67931;BME280;63902;52.000;5.954;2022-10-17T01:01:38;101273.63;;;11.62;100.00
67931;BME280;63902;52.000;5.954;2022-10-17T01:02:40;101268.31;;;11.62;100.00
67931;BME280;63902;52.000;5.954;2022-10-17T01:03:41;101266.66;;;11.59;100.00
67931;BME280;63902;52.000;5.954;2022-10-17T01:04:43;101268.53;;;11.57;100.00
67931;BME280;63902;52.000;5.954;2022-10-17T01:05:45;101265.88;;;11.57;100.00
67931;BME280;63902;52.000;5.954;2022-10-17T01:06:46;101270.31;;;11.57;100.00
67931;BME280;63902;52.000;5.954;2022-10-17T01:07:48;101262.38;;;11.55;100.00
67931;BME280;63902;52.000;5.954;2022-10-17T01:08:49;101268.53;;;11.57;100.00
67931;BME280;63902;52.000;5.954;2022-10-17T01:09:50;101264.00;;;11.59;100.00
67931;BME280;63902;52.000;5.954;2022-10-17T01:10:58;101268.28;;;11.63;100.00
67931;BME280;63902;52.000;5.954;2022-10-17T01:12:06;101269.13;;;11.64;100.00
67931;BME280;63902;52.000;5.954;2022-10-17T01:13:14;101258.75;;;11.58;100.00
67931;BME280;63902;52.000;5.954;2022-10-17T01:14:23;101268.41;;;11.60;100.00
67931;BME280;63902;52.000;5.954;2022-10-17T01:15:37;101261.41;;;11.58;100.00
67931;BME280;63902;52.000;5.954;2022-10-17T01:16:44;101263.13;;;11.59;100.00
67931;BME280;63902;52.000;5.954;2022-10-17T01:17:59;101258.50;;;11.64;100.00
67931;BME280;63902;52.000;5.954;2022-10-17T01:19:19;101261.03;;;11.67;100.00
67931;BME280;63902;52.000;5.954;2022-10-17T01:20:45;101256.56;;;11.69;100.00
67931;BME280;63902;52.000;5.954;2022-10-17T01:21:51;101253.88;;;11.69;100.00
67931;BME280;63902;52.000;5.954;2022-10-17T01:23:03;101244.84;;;11.73;100.00
67931;BME280;63902;52.000;5.954;2022-10-17T01:24:32;101245.69;;;11.75;100.00
67931;BME280;63902;52.000;5.954;2022-10-17T01:25:46;101252.75;;;11.76;100.00
67931;BME280;63902;52.000;5.954;2022-10-17T01:28:35;101254.38;;;11.79;100.00
67931;BME280;63902;52.000;5.954;2022-10-17T01:29:56;101249.16;;;11.77;100.00
67931;BME280;63902;52.000;5.954;2022-10-17T01:31:06;101248.34;;;11.75;100.00
67931;BME280;63902;52.000;5.954;2022-10-17T01:32:12;101237.91;;;11.71;100.00
67931;BME280;63902;52.000;5.954;2022-10-17T01:33:20;101239.63;;;11.72;100.00
67931;BME280;63902;52.000;5.954;2022-10-17T01:34:30;101244.84;;;11.73;100.00
67931;BME280;63902;52.000;5.954;2022-10-17T01:35:36;101243.88;;;11.76;100.00
67931;BME280;63902;52.000;5.954;2022-10-17T01:36:46;101240.31;;;11.77;100.00
67931;BME280;63902;52.000;5.954;2022-10-17T01:37:52;101247.31;;;11.79;100.00
67931;BME280;63902;52.000;5.954;2022-10-17T01:38:59;101247.19;;;11.82;100.00
67931;BME280;63902;52.000;5.954;2022-10-17T01:40:06;101238.34;;;11.82;100.00
67931;BME280;63902;52.000;5.954;2022-10-17T01:41:14;101244.53;;;11.82;100.00
67931;BME280;63902;52.000;5.954;2022-10-17T01:42:22;101236.38;;;11.87;100.00
67931;BME280;63902;52.000;5.954;2022-10-17T01:43:30;101239.84;;;11.89;100.00
67931;BME280;63902;52.000;5.954;2022-10-17T01:44:35;101242.66;;;11.84;100.00
67931;BME280;63902;52.000;5.954;2022-10-17T01:45:42;101244.19;;;11.92;100.00
67931;BME280;63902;52.000;5.954;2022-10-17T01:46:48;101232.72;;;11.90;100.00
67931;BME280;63902;52.000;5.954;2022-10-17T01:47:51;101237.16;;;11.91;100.00
67931;BME280;63902;52.000;5.954;2022-10-17T01:48:54;101237.16;;;11.91;100.00
67931;BME280;63902;52.000;5.954;2022-10-17T01:50:00;101240.72;;;11.90;100.00
67931;BME280;63902;52.000;5.954;2022-10-17T01:51:06;101238.13;;;11.88;100.00
67931;BME280;63902;52.000;5.954;2022-10-17T01:52:10;101228.47;;;11.85;100.00
67931;BME280;63902;52.000;5.954;2022-10-17T01:53:15;101232.00;;;11.84;100.00
67931;BME280;63902;52.000;5.954;2022-10-17T01:54:22;101237.31;;;11.84;100.00
67931;BME280;63902;52.000;5.954;2022-10-17T01:55:26;101233.78;;;11.85;100.00
67931;BME280;63902;52.000;5.954;2022-10-17T01:56:30;101231.16;;;11.84;100.00
67931;BME280;63902;52.000;5.954;2022-10-17T01:57:36;101234.78;;;11.81;100.00
67931;BME280;63902;52.000;5.954;2022-10-17T01:58:40;101230.47;;;11.79;100.00
67931;BME280;63902;52.000;5.954;2022-10-17T01:59:45;101234.19;;;11.75;100.00
67931;BME280;63902;52.000;5.954;2022-10-17T02:00:48;101235.13;;;11.74;100.00
67931;BME280;63902;52.000;5.954;2022-10-17T02:01:52;101226.47;;;11.69;100.00
67931;BME280;63902;52.000;5.954;2022-10-17T02:02:57;101231.56;;;11.73;100.00
67931;BME280;63902;52.000;5.954;2022-10-17T02:04:00;101234.31;;;11.72;100.00
67931;BME280;63902;52.000;5.954;2022-10-17T02:05:03;101222.75;;;11.73;100.00
67931;BME280;63902;52.000;5.954;2022-10-17T02:06:04;101232.47;;;11.74;100.00
67931;BME280;63902;52.000;5.954;2022-10-17T02:07:05;101223.50;;;11.76;100.00
67931;BME280;63902;52.000;5.954;2022-10-17T02:08:06;101226.81;;;11.81;100.00
67931;BME280;63902;52.000;5.954;2022-10-17T02:09:16;101230.28;;;11.83;100.00
67931;BME280;63902;52.000;5.954;2022-10-17T02:10:21;101230.28;;;11.83;100.00
67931;BME280;63902;52.000;5.954;2022-10-17T02:11:25;101216.06;;;11.86;100.00
67931;BME280;63902;52.000;5.954;2022-10-17T02:12:48;101230.06;;;11.90;100.00
67931;BME280;63902;52.000;5.954;2022-10-17T02:14:09;101225.56;;;11.92;100.00
67931;BME280;63902;52.000;5.954;2022-10-17T02:15:27;101223.84;;;11.91;100.00
67931;BME280;63902;52.000;5.954;2022-10-17T02:16:35;101222.09;;;11.90;100.00
67931;BME280;63902;52.000;5.954;2022-10-17T02:17:44;101218.59;;;11.89;100.00
67931;BME280;63902;52.000;5.954;2022-10-17T02:19:06;101220.50;;;11.85;100.00
67931;BME280;63902;52.000;5.954;2022-10-17T02:20:16;101211.69;;;11.83;100.00
67931;BME280;63902;52.000;5.954;2022-10-17T02:21:23;101202.13;;;11.79;100.00
67931;BME280;63902;52.000;5.954;2022-10-17T02:22:34;101205.69;;;11.78;100.00
67931;BME280;63902;52.000;5.954;2022-10-17T02:23:41;101209.34;;;11.76;100.00
67931;BME280;63902;52.000;5.954;2022-10-17T02:24:49;101212.88;;;11.76;100.00
67931;BME280;63902;52.000;5.954;2022-10-17T02:25:57;101220.84;;;11.76;100.00
67931;BME280;63902;52.000;5.954;2022-10-17T02:27:04;101211.09;;;11.77;100.00
67931;BME280;63902;52.000;5.954;2022-10-17T02:28:14;101222.63;;;11.76;100.00
67931;BME280;63902;52.000;5.954;2022-10-17T02:29:20;101222.63;;;11.76;100.00
67931;BME280;63902;52.000;5.954;2022-10-17T02:30:28;101219.06;;;11.77;100.00
67931;BME280;63902;52.000;5.954;2022-10-17T02:31:35;101219.97;;;11.76;100.00
67931;BME280;63902;52.000;5.954;2022-10-17T02:32:41;101219.06;;;11.77;100.00
67931;BME280;63902;52.000;5.954;2022-10-17T02:33:46;101209.22;;;11.79;100.00
67931;BME280;63902;52.000;5.954;2022-10-17T02:34:50;101217.72;;;11.89;100.00
67931;BME280;63902;52.000;5.954;2022-10-17T02:35:55;101215.06;;;11.89;100.00
67931;BME280;63902;52.000;5.954;2022-10-17T02:36:59;101211.28;;;11.94;100.00
67931;BME280;63902;52.000;5.954;2022-10-17T02:38:01;101224.63;;;11.93;100.00
67931;BME280;63902;52.000;5.954;2022-10-17T02:39:04;101220.31;;;11.90;100.00
67931;BME280;63902;52.000;5.954;2022-10-17T02:40:08;101226.38;;;11.94;100.00
67931;BME280;63902;52.000;5.954;2022-10-17T02:41:12;101225.19;;;12.01;100.00
67931;BME280;63902;52.000;5.954;2022-10-17T02:42:15;101231.50;;;11.98;100.00
67931;BME280;63902;52.000;5.954;2022-10-17T02:43:16;101224.41;;;11.99;100.00
67931;BME280;63902;52.000;5.954;2022-10-17T02:44:19;101211.28;;;11.94;100.00
67931;BME280;63902;52.000;5.954;2022-10-17T02:45:22;101215.06;;;11.89;100.00
67931;BME280;63902;52.000;5.954;2022-10-17T02:46:26;101211.59;;;11.86;100.00
67931;BME280;63902;52.000;5.954;2022-10-17T02:47:31;101209.03;;;11.83;100.00
67931;BME280;63902;52.000;5.954;2022-10-17T02:48:37;101209.16;;;11.80;100.00
67931;BME280;63902;52.000;5.954;2022-10-17T02:49:40;101216.31;;;11.78;100.00
67931;BME280;63902;52.000;5.954;2022-10-17T02:50:51;101203.97;;;11.77;100.00
67931;BME280;63902;52.000;5.954;2022-10-17T02:52:00;101204.94;;;11.75;100.00
67931;BME280;63902;52.000;5.954;2022-10-17T02:53:05;101209.34;;;11.76;100.00
67931;BME280;63902;52.000;5.954;2022-10-17T02:54:12;101202.28;;;11.75;100.00
67931;BME280;63902;52.000;5.954;2022-10-17T02:55:17;101205.81;;;11.75;100.00
67931;BME280;63902;52.000;5.954;2022-10-17T02:56:19;101206.50;;;11.80;100.00
67931;BME280;63902;52.000;5.954;2022-10-17T02:57:24;101210.88;;;11.81;100.00
67931;BME280;63902;52.000;5.954;2022-10-17T02:58:30;101217.94;;;11.82;100.00
67931;BME280;63902;52.000;5.954;2022-10-17T02:59:33;101210.13;;;11.78;100.00
67931;BME280;63902;52.000;5.954;2022-10-17T03:00:34;101213.63;;;11.80;100.00
67931;BME280;63902;52.000;5.954;2022-10-17T03:01:35;101219.91;;;11.77;100.00
67931;BME280;63902;52.000;5.954;2022-10-17T03:02:39;101222.63;;;11.76;100.00
67931;BME280;63902;52.000;5.954;2022-10-17T03:03:41;101220.03;;;11.74;100.00
67931;BME280;63902;52.000;5.954;2022-10-17T03:04:42;101213.91;;;11.72;100.00
67931;BME280;63902;52.000;5.954;2022-10-17T03:05:43;101221.88;;;11.72;100.00
67931;BME280;63902;52.000;5.954;2022-10-17T03:06:45;101215.75;;;11.70;100.00
67931;BME280;63902;52.000;5.954;2022-10-17T03:07:46;101212.25;;;11.70;100.00
67931;BME280;63902;52.000;5.954;2022-10-17T03:08:46;101213.16;;;11.69;100.00
67931;BME280;63902;52.000;5.954;2022-10-17T03:09:47;101207.03;;;11.67;100.00
67931;BME280;63902;52.000;5.954;2022-10-17T03:10:47;101210.69;;;11.64;100.00
67931;BME280;63902;52.000;5.954;2022-10-17T03:11:48;101210.69;;;11.64;100.00
67931;BME280;63902;52.000;5.954;2022-10-17T03:12:48;101211.66;;;11.61;100.00
67931;BME280;63902;52.000;5.954;2022-10-17T03:13:48;101213.34;;;11.64;100.00
67931;BME280;63902;52.000;5.954;2022-10-17T03:14:49;101204.56;;;11.62;100.00
67931;BME280;63902;52.000;5.954;2022-10-17T03:15:49;101212.19;;;11.71;100.00
67931;BME280;63902;52.000;5.954;2022-10-17T03:16:50;101209.53;;;11.71;100.00
67931;BME280;63902;52.000;5.954;2022-10-17T03:17:50;101214.84;;;11.71;100.00
67931;BME280;63902;52.000;5.954;2022-10-17T03:18:52;101218.38;;;11.72;100.00
67931;BME280;63902;52.000;5.954;2022-10-17T03:19:52;101217.44;;;11.73;100.00
67931;BME280;63902;52.000;5.954;2022-10-17T03:20:53;101212.06;;;11.74;100.00
67931;BME280;63902;52.000;5.954;2022-10-17T03:21:53;101210.28;;;11.75;100.00
67931;BME280;63902;52.000;5.954;2022-10-17T03:22:54;101208.66;;;11.71;100.00
67931;BME280;63902;52.000;5.954;2022-10-17T03:23:54;101212.25;;;11.70;100.00
67931;BME280;63902;52.000;5.954;2022-10-17T03:24:55;101203.34;;;11.71;100.00
67931;BME280;63902;52.000;5.954;2022-10-17T03:25:55;101204.34;;;11.68;100.00
67931;BME280;63902;52.000;5.954;2022-10-17T03:26:55;101201.81;;;11.65;100.00
67931;BME280;63902;52.000;5.954;2022-10-17T03:27:57;101204.34;;;11.68;100.00
67931;BME280;63902;52.000;5.954;2022-10-17T03:28:58;101214.97;;;11.68;100.00
67931;BME280;63902;52.000;5.954;2022-10-17T03:29:58;101209.78;;;11.65;100.00
67931;BME280;63902;52.000;5.954;2022-10-17T03:30:59;101212.44;;;11.65;100.00
67931;BME280;63902;52.000;5.954;2022-10-17T03:31:59;101217.75;;;11.65;100.00
67931;BME280;63902;52.000;5.954;2022-10-17T03:32:59;101215.09;;;11.65;100.00
67931;BME280;63902;52.000;5.954;2022-10-17T03:34:02;101213.22;;;11.67;100.00
67931;BME280;63902;52.000;5.954;2022-10-17T03:35:02;101218.41;;;11.70;100.00
67931;BME280;63902;52.000;5.954;2022-10-17T03:36:06;101221.88;;;11.72;100.00
67931;BME280;63902;52.000;5.954;2022-10-17T03:37:07;101216.56;;;11.72;100.00
67931;BME280;63902;52.000;5.954;2022-10-17T03:38:07;101221.03;;;11.72;100.00
67931;BME280;63902;52.000;5.954;2022-10-17T03:39:08;101225.59;;;11.68;100.00
67931;BME280;63902;52.000;5.954;2022-10-17T03:40:09;101222.13;;;11.66;100.00
67931;BME280;63902;52.000;5.954;2022-10-17T03:41:10;101222.00;;;11.69;100.00
67931;BME280;63902;52.000;5.954;2022-10-17T03:42:10;101224.53;;;11.72;100.00
67931;BME280;63902;52.000;5.954;2022-10-17T03:43:10;101224.53;;;11.72;100.00
67931;BME280;63902;52.000;5.954;2022-10-17T03:44:11;101221.16;;;11.69;100.00
67931;BME280;63902;52.000;5.954;2022-10-17T03:45:12;101224.78;;;11.66;100.00
67931;BME280;63902;52.000;5.954;2022-10-17T03:46:12;101223.81;;;11.69;100.00
67931;BME280;63902;52.000;5.954;2022-10-17T03:47:12;101225.47;;;11.71;100.00
67931;BME280;63902;52.000;5.954;2022-10-17T03:48:13;101221.16;;;11.69;100.00
67931;BME280;63902;52.000;5.954;2022-10-17T03:49:14;101224.63;;;11.71;100.00
67931;BME280;63902;52.000;5.954;2022-10-17T03:50:15;101221.84;;;11.74;100.00
67931;BME280;63902;52.000;5.954;2022-10-17T03:51:16;101221.63;;;11.78;100.00
67931;BME280;63902;52.000;5.954;2022-10-17T03:52:16;101215.34;;;11.81;100.00
67931;BME280;63902;52.000;5.954;2022-10-17T03:53:17;101213.41;;;11.84;100.00
67931;BME280;63902;52.000;5.954;2022-10-17T03:54:17;101220.59;;;11.82;100.00
67931;BME280;63902;52.000;5.954;2022-10-17T03:55:18;101218.81;;;11.83;100.00
67931;BME280;63902;52.000;5.954;2022-10-17T03:56:19;101220.44;;;11.87;100.00
67931;BME280;63902;52.000;5.954;2022-10-17T03:57:20;101223.84;;;11.91;100.00
67931;BME280;63902;52.000;5.954;2022-10-17T03:58:21;101224.59;;;11.94;100.00
67931;BME280;63902;52.000;5.954;2022-10-17T03:59:21;101228.97;;;11.95;100.00
67931;BME280;63902;52.000;5.954;2022-10-17T04:00:22;101226.25;;;11.97;100.00
67931;BME280;63902;52.000;5.954;2022-10-17T04:01:23;101227.84;;;12.01;100.00
67931;BME280;63902;52.000;5.954;2022-10-17T04:02:23;101223.38;;;12.01;100.00
67931;BME280;63902;52.000;5.954;2022-10-17T04:03:23;101221.63;;;12.02;100.00
67931;BME280;63902;52.000;5.954;2022-10-17T04:04:25;101227.00;;;12.00;100.00
67931;BME280;63902;52.000;5.954;2022-10-17T04:05:26;101224.41;;;11.99;100.00
67931;BME280;63902;52.000;5.954;2022-10-17T04:06:26;101217.44;;;11.96;100.00
67931;BME280;63902;52.000;5.954;2022-10-17T04:07:27;101222.53;;;12.01;100.00
67931;BME280;63902;52.000;5.954;2022-10-17T04:08:27;101218.06;;;12.01;100.00
67931;BME280;63902;52.000;5.954;2022-10-17T04:09:28;101222.53;;;12.01;100.00
67931;BME280;63902;52.000;5.954;2022-10-17T04:10:28;101219.81;;;12.02;100.00
67931;BME280;63902;52.000;5.954;2022-10-17T04:11:29;101219.00;;;12.00;100.00
67931;BME280;63902;52.000;5.954;2022-10-17T04:12:29;101219.09;;;11.99;100.00
67931;BME280;63902;52.000;5.954;2022-10-17T04:13:30;101219.88;;;12.01;100.00
67931;BME280;63902;52.000;5.954;2022-10-17T04:14:30;101213.66;;;12.02;100.00
67931;BME280;63902;52.000;5.954;2022-10-17T04:15:31;101221.75;;;11.99;100.00
67931;BME280;63902;52.000;5.954;2022-10-17T04:16:31;101216.44;;;11.99;100.00
67931;BME280;63902;52.000;5.954;2022-10-17T04:17:32;101217.91;;;12.06;100.00
67931;BME280;63902;52.000;5.954;2022-10-17T04:18:33;101219.56;;;12.08;100.00
67931;BME280;63902;52.000;5.954;2022-10-17T04:19:35;101212.44;;;12.09;100.00
67931;BME280;63902;52.000;5.954;2022-10-17T04:20:35;101212.66;;;12.04;100.00
67931;BME280;63902;52.000;5.954;2022-10-17T04:21:35;101218.31;;;12.17;100.00
67931;BME280;63902;52.000;5.954;2022-10-17T04:22:36;101231.63;;;12.17;100.00
67931;BME280;63902;52.000;5.954;2022-10-17T04:23:37;101220.00;;;12.20;100.00
67931;BME280;63902;52.000;5.954;2022-10-17T04:24:37;101230.75;;;12.17;100.00
67931;BME280;63902;52.000;5.954;2022-10-17T04:25:38;101231.69;;;12.16;100.00
67931;BME280;63902;52.000;5.954;2022-10-17T04:26:38;101230.81;;;12.15;100.00
67931;BME280;63902;52.000;5.954;2022-10-17T04:27:39;101238.75;;;12.17;100.00
67931;BME280;63902;52.000;5.954;2022-10-17T04:28:39;101248.25;;;12.22;100.00
67931;BME280;63902;52.000;5.954;2022-10-17T04:29:40;101244.75;;;12.22;100.00
67931;BME280;63902;52.000;5.954;2022-10-17T04:30:40;101245.59;;;12.22;100.00
67931;BME280;63902;52.000;5.954;2022-10-17T04:31:40;101244.59;;;12.25;100.00
67931;BME280;63902;52.000;5.954;2022-10-17T04:32:41;101243.34;;;12.34;100.00
67931;BME280;63902;52.000;5.954;2022-10-17T04:33:41;101239.44;;;12.42;100.00
67931;BME280;63902;52.000;5.954;2022-10-17T04:34:43;101235.00;;;12.43;100.00
67931;BME280;63902;52.000;5.954;2022-10-17T04:35:54;101225.34;;;12.40;100.00
67931;BME280;63902;52.000;5.954;2022-10-17T04:36:54;101227.94;;;12.42;100.00
67931;BME280;63902;52.000;5.954;2022-10-17T04:37:55;101230.66;;;12.40;100.00
67931;BME280;63902;52.000;5.954;2022-10-17T04:38:55;101235.00;;;12.43;100.00
67931;BME280;63902;52.000;5.954;2022-10-17T04:39:56;101239.44;;;12.42;100.00
67931;BME280;63902;52.000;5.954;2022-10-17T04:40:56;101232.41;;;12.41;100.00
67931;BME280;63902;52.000;5.954;2022-10-17T04:41:57;101227.09;;;12.41;100.00
67931;BME280;63902;52.000;5.954;2022-10-17T04:42:58;101229.66;;;12.43;100.00
67931;BME280;63902;52.000;5.954;2022-10-17T04:43:58;101223.44;;;12.44;100.00
67931;BME280;63902;52.000;5.954;2022-10-17T04:44:58;101224.47;;;12.40;100.00
67931;BME280;63902;52.000;5.954;2022-10-17T04:46:00;101229.66;;;12.43;100.00
67931;BME280;63902;52.000;5.954;2022-10-17T04:47:01;101235.00;;;12.43;100.00
67931;BME280;63902;52.000;5.954;2022-10-17T04:48:01;101230.53;;;12.43;100.00
67931;BME280;63902;52.000;5.954;2022-10-17T04:49:02;101242.06;;;12.44;100.00
67931;BME280;63902;52.000;5.954;2022-10-17T04:50:04;101235.84;;;12.43;100.00
67931;BME280;63902;52.000;5.954;2022-10-17T04:51:06;101236.75;;;12.44;100.00
67931;BME280;63902;52.000;5.954;2022-10-17T04:52:07;101245.50;;;12.46;100.00
67931;BME280;63902;52.000;5.954;2022-10-17T04:53:07;101246.38;;;12.46;100.00
67931;BME280;63902;52.000;5.954;2022-10-17T04:54:08;101247.25;;;12.47;100.00
67931;BME280;63902;52.000;5.954;2022-10-17T04:55:08;101245.38;;;12.49;100.00
67931;BME280;63902;52.000;5.954;2022-10-17T04:56:10;101250.81;;;12.46;100.00
67931;BME280;63902;52.000;5.954;2022-10-17T04:57:11;101255.41;;;12.42;100.00
67931;BME280;63902;52.000;5.954;2022-10-17T04:58:11;101259.88;;;12.42;100.00
67931;BME280;63902;52.000;5.954;2022-10-17T04:59:12;101262.53;;;12.42;100.00
67931;BME280;63902;52.000;5.954;2022-10-17T05:00:13;101258.16;;;12.41;100.00
67931;BME280;63902;52.000;5.954;2022-10-17T05:01:16;101262.44;;;12.43;100.00
67931;BME280;63902;52.000;5.954;2022-10-17T05:02:16;101262.44;;;12.43;100.00
67931;BME280;63902;52.000;5.954;2022-10-17T05:03:17;101261.31;;;12.49;100.00
67931;BME280;63902;52.000;5.954;2022-10-17T05:04:17;101267.47;;;12.51;100.00
67931;BME280;63902;52.000;5.954;2022-10-17T05:05:19;101271.78;;;12.53;100.00
67931;BME280;63902;52.000;5.954;2022-10-17T05:06:22;101273.59;;;12.53;100.00
67931;BME280;63902;52.000;5.954;2022-10-17T05:07:22;101277.25;;;12.50;100.00
67931;BME280;63902;52.000;5.954;2022-10-17T05:08:23;101277.19;;;12.52;100.00
67931;BME280;63902;52.000;5.954;2022-10-17T05:09:23;101276.28;;;12.51;100.00
67931;BME280;63902;52.000;5.954;2022-10-17T05:10:24;101272.88;;;12.49;100.00
67931;BME280;63902;52.000;5.954;2022-10-17T05:11:26;101274.59;;;12.50;100.00
67931;BME280;63902;52.000;5.954;2022-10-17T05:12:27;101277.19;;;12.52;100.00
67931;BME280;63902;52.000;5.954;2022-10-17T05:13:27;101272.88;;;12.49;100.00
67931;BME280;63902;52.000;5.954;2022-10-17T05:14:28;101279.03;;;12.50;100.00
67931;BME280;63902;52.000;5.954;2022-10-17T05:15:28;101284.50;;;12.47;100.00
67931;BME280;63902;52.000;5.954;2022-10-17T05:16:30;101281.97;;;12.44;100.00
67931;BME280;63902;52.000;5.954;2022-10-17T05:17:31;101279.44;;;12.41;100.00
67931;BME280;63902;52.000;5.954;2022-10-17T05:18:31;101281.34;;;12.37;100.00
67931;BME280;63902;52.000;5.954;2022-10-17T05:19:31;101274.22;;;12.38;100.00
67931;BME280;63902;52.000;5.954;2022-10-17T05:20:33;101277.81;;;12.37;100.00
67931;BME280;63902;52.000;5.954;2022-10-17T05:21:34;101276.09;;;12.36;100.00
67931;BME280;63902;52.000;5.954;2022-10-17T05:22:34;101284.81;;;12.39;100.00
67931;BME280;63902;52.000;5.954;2022-10-17T05:23:35;101281.16;;;12.42;100.00
67931;BME280;63902;52.000;5.954;2022-10-17T05:24:35;101281.97;;;12.44;100.00
67931;BME280;63902;52.000;5.954;2022-10-17T05:25:35;101273.84;;;12.47;100.00
67931;BME280;63902;52.000;5.954;2022-10-17T05:26:36;101278.31;;;12.46;100.00
67931;BME280;63902;52.000;5.954;2022-10-17T05:27:36;101282.75;;;12.46;100.00
67931;BME280;63902;52.000;5.954;2022-10-17T05:28:37;101288.97;;;12.46;100.00